Avon, Montana
Current Conditions -  °F | °C
As of 10:53 AM on Sunday 23 Nov 2014 (Local Time) from KHLN Reporting Station
Broken Clouds Broken Clouds  
Wind Chill: 30°   Ceiling: 5500
Heat Index: 39°   Visibility: 10mi
Dew Point: 18°   Wind: 17mph
Humidity: 43%   Direction: 300°WNW
Pressure: 30"   Gusts: 26mph
Location:  46.59°N, 112.61°W
Report Text: KHLN 231753Z 30015G23KT 10SM BKN055 04/M08 A3000 RMK AO2 PK WND 31032/1717 SLP193 T00391078 10039 20006 51014
Loading
Personal Weather Stations






























Interactive Weather Map New forecast layout! Learn more

10-Day Weather Forecast

Advertisements
Track Severe Weather on mobile